Bow Clipper — LAUU4 — position and weather

sailwx.info

Track history (hours):
 
Tides and Currents Weather Stations Pressure Air Temp Water Temp Dewpoint Dewpoint Depression Visibility Wind Speed Wind Dir Waves Ship Positions

Bow Clipper

Last reported at 2017-Jun-22 04:34 UTC. Time now 2017-Jun-28 16:06 UTC.
Position N 49°05' W 006°40'.

Length 188 m; draft 6.1 m.

Type: Ship (hazmat cat B). MMSI: 258946991.

Date/timePositionNaut miles runAvg speedWind from/ knotsBaromVisibWave heightAir tempDewpointWater temp
2017-Jun-22 04:34N 49°05' W 006°40'412.3
2017-Jun-22 04:16N 49°05' W 006°35'412.4
2017-Jun-22 03:59N 49°05' W 006°29'612.1
2017-Jun-22 03:30N 49°05' W 006°20'812.2
2017-Jun-22 02:51N 49°08' W 006°09'412.3
2017-Jun-22 02:30N 49°09' W 006°03'612.2
2017-Jun-22 01:59N 49°12' W 005°54'612.2
2017-Jun-22 01:30N 49°14' W 005°46'612.1
2017-Jun-22 00:59N 49°16' W 005°37'612.3
2017-Jun-22 00:30N 49°19' W 005°28'612.5
2017-Jun-22 00:00N 49°21' W 005°19'712.8
2017-Jun-21 23:25N 49°23' W 005°09'713.1
2017-Jun-21 22:55N 49°26' W 004°59'613.5
2017-Jun-21 22:29N 49°28' W 004°51'713.8
2017-Jun-21 21:59N 49°31' W 004°41'714.0
2017-Jun-21 21:30N 49°33' W 004°32'714.2
2017-Jun-21 21:00N 49°36' W 004°21'714.3
2017-Jun-21 20:30N 49°39' W 004°11'714.1
2017-Jun-21 20:00N 49°42' W 004°01'713.7
2017-Jun-21 19:30N 49°45' W 003°52'713.3
2017-Jun-21 19:00N 49°47' W 003°42'612.6
2017-Jun-21 18:30N 49°50' W 003°33'612.2
2017-Jun-21 18:00N 49°52' W 003°25'611.9
2017-Jun-21 17:30N 49°55' W 003°16'611.7
2017-Jun-21 17:00N 49°57' W 003°08'611.6
2017-Jun-21 16:30N 49°59' W 002°59'611.6
2017-Jun-21 16:00N 50°01' W 002°51'611.8
2017-Jun-21 15:29N 50°02' W 002°42'712.1
2017-Jun-21 14:57N 50°04' W 002°32'1312.9
2017-Jun-21 13:57N 50°08' W 002°13'714.1
2017-Jun-21 13:27N 50°10' W 002°02'714.8
2017-Jun-21 13:00N 50°12' W 001°52'915.5
2017-Jun-21 12:25N 50°14' W 001°38'615.9
2017-Jun-21 12:00N 50°16' W 001°29'816.0
2017-Jun-21 11:30N 50°18' W 001°17'816.4
2017-Jun-21 11:00N 50°21' W 001°04'816.3
2017-Jun-21 10:30N 50°22' W 000°52'815.3
2017-Jun-21 10:00N 50°24' W 000°40'714.7
2017-Jun-21 09:30N 50°26' W 000°29'714.2
2017-Jun-21 09:00N 50°28' W 000°18'713.6
2017-Jun-21 08:30N 50°30' W 000°08'713.0
2017-Jun-21 08:00N 50°32' E 000°02'612.6
2017-Jun-21 07:30N 50°33' E 000°11'612.1
2017-Jun-21 07:00N 50°35' E 000°20'611.9
2017-Jun-21 06:30N 50°37' E 000°29'611.9
2017-Jun-21 06:00N 50°39' E 000°38'612.5
2017-Jun-21 05:30N 50°43' E 000°46'612.9
2017-Jun-21 05:00N 50°47' E 000°54'713.6
2017-Jun-21 04:28N 50°51' E 001°04'714.5
2017-Jun-21 03:59N 50°56' E 001°12'715.4
2017-Jun-21 03:30N 51°01' E 001°21'815.7
2017-Jun-21 03:00N 51°05' E 001°31'815.3
2017-Jun-21 02:30N 51°10' E 001°40'714.3
2017-Jun-21 02:00N 51°16' E 001°47'713.7
2017-Jun-21 01:30N 51°22' E 001°52'612.9
2017-Jun-21 01:00N 51°27' E 001°57'612.7
2017-Jun-21 00:30N 51°32' E 002°04'612.5
2017-Jun-21 00:00N 51°37' E 002°11'612.4
2017-Jun-20 23:30N 51°41' E 002°18'612.2
2017-Jun-20 23:00N 51°46' E 002°24'612.1
2017-Jun-20 22:30N 51°51' E 002°30'612.2
2017-Jun-20 22:00N 51°55' E 002°37'612.4
2017-Jun-20 21:30N 51°59' E 002°45'612.2
2017-Jun-20 21:00N 52°03' E 002°53'613.2
2017-Jun-20 20:30N 52°03' E 003°03'816.1
2017-Jun-20 20:00N 52°03' E 003°17'611.7
2017-Jun-20 19:30N 52°03' E 003°26'713.7
2017-Jun-20 19:01N 52°03' E 003°37'714.4
2017-Jun-20 18:30N 52°03' E 003°49'4 8.9
2017-Jun-20 18:00N 52°02' E 003°56'713.7
2017-Jun-20 17:31N 51°59' E 004°06'510.2
2017-Jun-20 17:00N 51°56' E 004°13'5 9.4
2017-Jun-20 16:30N 51°54' E 004°19'0 0.8
2017-Jun-20 15:57N 51°53' E 004°19'0 0.0
2017-Jun-20 15:30N 51°53' E 004°19'0 0.0
2017-Jun-20 15:00N 51°53' E 004°19'0 0.0
2017-Jun-20 14:30N 51°53' E 004°19'0 0.0
2017-Jun-20 13:30N 51°53' E 004°19'0 0.0
2017-Jun-20 13:00N 51°53' E 004°19'0 0.0
2017-Jun-20 12:30N 51°53' E 004°19'0 0.0
2017-Jun-20 12:00N 51°53' E 004°19'0 0.0
2017-Jun-20 11:29N 51°53' E 004°19'0 0.0
2017-Jun-20 11:00N 51°53' E 004°19'0 0.0
2017-Jun-20 10:30N 51°53' E 004°19'0 0.0
2017-Jun-20 10:00N 51°53' E 004°19'0 0.0
2017-Jun-20 09:30N 51°53' E 004°19'0 0.7
2017-Jun-20 09:00N 51°53' E 004°19'1 1.1
2017-Jun-20 08:30N 51°53' E 004°19'0 0.0
2017-Jun-20 08:00N 51°53' E 004°19'0 0.0
2017-Jun-20 07:30N 51°53' E 004°19'0 0.0
2017-Jun-20 07:00N 51°53' E 004°19'0 0.0
2017-Jun-20 06:30N 51°53' E 004°19'0 0.0
2017-Jun-20 06:00N 51°53' E 004°19'0 0.0
2017-Jun-20 05:30N 51°53' E 004°19'0 0.0
2017-Jun-20 05:00N 51°53' E 004°19'0 0.0
2017-Jun-20 04:30N 51°53' E 004°19'0 0.0
2017-Jun-20 04:00N 51°53' E 004°19'0 0.0
2017-Jun-20 03:30N 51°53' E 004°19'0 0.0
2017-Jun-20 03:00N 51°53' E 004°19'0 0.0
2017-Jun-20 02:30N 51°53' E 004°19'0 0.0
2017-Jun-20 02:00N 51°53' E 004°19'0 0.0
2017-Jun-20 01:30N 51°53' E 004°19'0 0.0
2017-Jun-20 01:00N 51°53' E 004°19'0 0.0
2017-Jun-20 00:30N 51°53' E 004°19'0 0.0
2017-Jun-20 00:00N 51°53' E 004°19'0 0.0
2017-Jun-19 23:30N 51°53' E 004°19'0 0.0
2017-Jun-19 23:00N 51°53' E 004°19'0 0.0
2017-Jun-19 22:30N 51°53' E 004°19'0 0.0
2017-Jun-19 22:00N 51°53' E 004°19'0 0.0
2017-Jun-19 21:30N 51°53' E 004°19'0 0.0
2017-Jun-19 21:00N 51°53' E 004°19'0 0.0
2017-Jun-19 20:30N 51°53' E 004°19'0 0.0
2017-Jun-19 20:00N 51°53' E 004°19'0 0.0
2017-Jun-19 19:30N 51°53' E 004°19'0 0.0
2017-Jun-19 18:59N 51°53' E 004°19'0 0.0
2017-Jun-19 18:30N 51°53' E 004°19'0 0.0
2017-Jun-19 18:00N 51°53' E 004°19'0 0.0
2017-Jun-19 17:30N 51°53' E 004°19'0 0.0
2017-Jun-19 17:00N 51°53' E 004°19'0 0.0
2017-Jun-19 16:30N 51°53' E 004°19'0 0.0
2017-Jun-19 16:00N 51°53' E 004°19'0 0.0
2017-Jun-19 15:30N 51°53' E 004°19'0 0.0
2017-Jun-19 15:00N 51°53' E 004°19'0 0.0
2017-Jun-19 14:00N 51°53' E 004°19'0 0.0
2017-Jun-19 13:30N 51°53' E 004°19'0 0.0
2017-Jun-19 13:00N 51°53' E 004°19'0 0.0
2017-Jun-19 12:30N 51°53' E 004°19'0 0.0
2017-Jun-19 12:00N 51°53' E 004°19'0 0.0
2017-Jun-19 11:30N 51°53' E 004°19'0 0.0
2017-Jun-19 11:00N 51°53' E 004°19'0 0.0
2017-Jun-19 10:30N 51°53' E 004°19'0 0.0
2017-Jun-19 10:00N 51°53' E 004°19'0 0.0
2017-Jun-19 09:30N 51°53' E 004°19'0 0.0
2017-Jun-19 09:00N 51°53' E 004°19'0 0.0
2017-Jun-19 08:30N 51°53' E 004°19'0 0.0
2017-Jun-19 08:00N 51°53' E 004°19'0 0.0
2017-Jun-19 07:30N 51°53' E 004°19'0 0.0
2017-Jun-19 06:59N 51°53' E 004°19'0 0.0
2017-Jun-19 06:30N 51°53' E 004°19'0 0.0
2017-Jun-19 06:00N 51°53' E 004°19'0 0.0
2017-Jun-19 05:30N 51°53' E 004°19'0 0.0
2017-Jun-19 05:00N 51°53' E 004°19'0 0.0
2017-Jun-19 04:29N 51°53' E 004°19'0 0.0
2017-Jun-19 04:00N 51°53' E 004°19'0 0.0
2017-Jun-19 03:30N 51°53' E 004°19'0 0.0
2017-Jun-19 03:00N 51°53' E 004°19'0 0.0
2017-Jun-19 02:30N 51°53' E 004°19'0 0.0
2017-Jun-19 02:00N 51°53' E 004°19'0 0.0
2017-Jun-19 01:29N 51°53' E 004°19'0 0.0
2017-Jun-19 01:00N 51°53' E 004°19'0 0.0
2017-Jun-19 00:30N 51°53' E 004°19'0 0.0
2017-Jun-19 00:00N 51°53' E 004°19'0 0.0
2017-Jun-18 23:30N 51°53' E 004°19'0 0.0
2017-Jun-18 23:00N 51°53' E 004°19'0 0.0
2017-Jun-18 22:29N 51°53' E 004°19'0 0.0
2017-Jun-18 22:00N 51°53' E 004°19'0 0.0
2017-Jun-18 21:30N 51°53' E 004°19'0 0.9
2017-Jun-18 21:00N 51°53' E 004°18'0 0.1
2017-Jun-18 20:30N 51°53' E 004°19'0 0.0
2017-Jun-18 20:00N 51°53' E 004°19'0 0.0
2017-Jun-18 19:29N 51°53' E 004°19'0 0.0
2017-Jun-18 19:00N 51°53' E 004°19'0 0.0
2017-Jun-18 18:30N 51°53' E 004°19'0 0.0
2017-Jun-18 18:00N 51°53' E 004°19'0 0.0
2017-Jun-18 17:30N 51°53' E 004°19'0 0.0
2017-Jun-18 17:00N 51°53' E 004°19'0 0.0
2017-Jun-18 16:29N 51°53' E 004°19'0 0.0
2017-Jun-18 16:00N 51°53' E 004°19'0 0.0
2017-Jun-18 15:30N 51°53' E 004°19'0 0.0
2017-Jun-18 15:00N 51°53' E 004°19'0 0.0
2017-Jun-18 14:00N 51°53' E 004°19'0 0.0
2017-Jun-18 13:30N 51°53' E 004°19'0 0.0
2017-Jun-18 12:57N 51°53' E 004°19'0 0.0
2017-Jun-18 12:29N 51°53' E 004°19'0 0.0
2017-Jun-18 12:00N 51°53' E 004°19'0 0.0
2017-Jun-18 11:29N 51°53' E 004°19'0 0.0
2017-Jun-18 11:00N 51°53' E 004°19'0 0.0
2017-Jun-18 10:30N 51°53' E 004°19'0 0.0
2017-Jun-18 10:00N 51°53' E 004°19'0 0.0
2017-Jun-18 09:30N 51°53' E 004°19'0 0.0
2017-Jun-18 09:00N 51°53' E 004°19'0 0.0
2017-Jun-18 08:30N 51°53' E 004°19'0 0.0
2017-Jun-18 08:00N 51°53' E 004°19'0 0.0
2017-Jun-18 07:30N 51°53' E 004°19'0 0.0
2017-Jun-18 07:00N 51°53' E 004°19'0 0.0
2017-Jun-18 06:30N 51°53' E 004°19'0 0.0
2017-Jun-18 06:00N 51°53' E 004°19'0 0.0
2017-Jun-18 05:30N 51°53' E 004°19'0 0.0
2017-Jun-18 05:00N 51°53' E 004°19'0 0.0
2017-Jun-18 04:30N 51°53' E 004°19'0 0.0
2017-Jun-18 04:00N 51°53' E 004°19'0 0.0
2017-Jun-18 03:30N 51°53' E 004°19'0 0.0
2017-Jun-18 03:00N 51°53' E 004°19'0 0.0
2017-Jun-18 02:30N 51°53' E 004°19'0 0.0
2017-Jun-18 02:00N 51°53' E 004°19'0 0.0
2017-Jun-18 01:30N 51°53' E 004°19'0 0.0
2017-Jun-18 01:00N 51°53' E 004°19'0 0.0
2017-Jun-18 00:30N 51°53' E 004°19'0 0.0
2017-Jun-18 00:00N 51°53' E 004°19'0 0.0
2017-Jun-17 23:30N 51°53' E 004°19'0 0.0
2017-Jun-17 23:00N 51°53' E 004°19'0 0.0
2017-Jun-17 22:24N 51°53' E 004°19'0 0.0
2017-Jun-17 22:00N 51°53' E 004°19'0 0.0
2017-Jun-17 21:30N 51°53' E 004°19'0 0.0
2017-Jun-17 21:00N 51°53' E 004°19'0 0.0
2017-Jun-17 20:30N 51°53' E 004°19'0 0.0
2017-Jun-17 20:00N 51°53' E 004°19'0 0.0
2017-Jun-17 19:30N 51°53' E 004°19'0 0.0
2017-Jun-17 19:00N 51°53' E 004°19'0 0.0
2017-Jun-17 18:30N 51°53' E 004°19'0 0.0
2017-Jun-17 18:00N 51°53' E 004°19'0 0.0
2017-Jun-17 17:30N 51°53' E 004°19'0 0.0
2017-Jun-17 17:00N 51°53' E 004°19'0 0.0
2017-Jun-17 16:30N 51°53' E 004°19'0 0.0
2017-Jun-17 16:00N 51°53' E 004°19'0 0.0
2017-Jun-17 15:30N 51°53' E 004°19'0 0.0
2017-Jun-17 15:00N 51°53' E 004°19'0 0.0
2017-Jun-17 14:30N 51°53' E 004°19'0 0.0
2017-Jun-17 13:30N 51°53' E 004°19'0 0.0
2017-Jun-17 13:00N 51°53' E 004°19'0 0.0
2017-Jun-17 12:30N 51°53' E 004°19'0 0.0
2017-Jun-17 12:00N 51°53' E 004°19'0 0.0
2017-Jun-17 11:30N 51°53' E 004°19'0 0.0
2017-Jun-17 11:00N 51°53' E 004°19'0 0.0
2017-Jun-17 10:30N 51°53' E 004°19'0 0.0
2017-Jun-17 10:00N 51°53' E 004°19'0 0.0
2017-Jun-17 09:30N 51°53' E 004°19'0 0.0
2017-Jun-17 09:00N 51°53' E 004°19'0 0.0
2017-Jun-17 08:30N 51°53' E 004°19'0 0.0
2017-Jun-17 08:00N 51°53' E 004°19'0 0.0
2017-Jun-17 07:30N 51°53' E 004°19'0 0.0
2017-Jun-17 07:00N 51°53' E 004°19'0 0.0
2017-Jun-17 06:30N 51°53' E 004°19'0 0.0
2017-Jun-17 06:00N 51°53' E 004°19'0 0.0
2017-Jun-17 05:30N 51°53' E 004°19'0 0.0
2017-Jun-17 05:00N 51°53' E 004°19'0 0.0
2017-Jun-17 04:30N 51°53' E 004°19'0 0.0
2017-Jun-17 04:00N 51°53' E 004°19'0 0.0
2017-Jun-17 03:30N 51°53' E 004°19'0 0.0
2017-Jun-17 03:00N 51°53' E 004°19'0 0.0
2017-Jun-17 02:30N 51°53' E 004°19'0 0.0
2017-Jun-17 02:00N 51°53' E 004°19'0 0.0
2017-Jun-17 01:30N 51°53' E 004°19'0 0.0
2017-Jun-17 01:00N 51°53' E 004°19'0 0.0
2017-Jun-17 00:30N 51°53' E 004°19'0 0.0
2017-Jun-17 00:00N 51°53' E 004°19'0 0.0
2017-Jun-16 23:30N 51°53' E 004°19'0 0.0
2017-Jun-16 23:00N 51°53' E 004°19'0 0.0
2017-Jun-16 22:30N 51°53' E 004°19'0 0.0
2017-Jun-16 22:00N 51°53' E 004°19'0 0.0
2017-Jun-16 21:30N 51°53' E 004°19'0 0.0
2017-Jun-16 21:00N 51°53' E 004°19'0 0.0
2017-Jun-16 20:30N 51°53' E 004°19'0 0.0
2017-Jun-16 20:00N 51°53' E 004°19'0 0.3
2017-Jun-16 19:30N 51°53' E 004°18'1 1.9
2017-Jun-16 19:00N 51°53' E 004°17'0 0.2
2017-Jun-16 18:30N 51°53' E 004°17'0 0.0
2017-Jun-16 18:00N 51°53' E 004°17'0 0.0
2017-Jun-16 17:30N 51°53' E 004°17'0 0.0
2017-Jun-16 17:00N 51°53' E 004°17'0 0.0
2017-Jun-16 16:30N 51°53' E 004°17'0 0.0
2017-Jun-16 16:00N 51°53' E 004°17'0 0.0
2017-Jun-16 15:30N 51°53' E 004°17'0 0.0
2017-Jun-16 15:00N 51°53' E 004°17'0 0.0
2017-Jun-16 14:30N 51°53' E 004°17'0 0.1
2017-Jun-16 13:30N 51°53' E 004°17'0 0.0
2017-Jun-16 13:00N 51°53' E 004°17'0 0.0
2017-Jun-16 12:30N 51°53' E 004°17'0 0.0
2017-Jun-16 12:00N 51°53' E 004°17'0 0.0
2017-Jun-16 11:30N 51°53' E 004°17'0 0.0
2017-Jun-16 11:00N 51°53' E 004°17'0 0.0
2017-Jun-16 10:30N 51°53' E 004°17'0 0.0
2017-Jun-16 10:00N 51°53' E 004°17'0 0.0
2017-Jun-16 09:30N 51°53' E 004°17'0 0.0
2017-Jun-16 08:57N 51°53' E 004°17'0 0.0
2017-Jun-16 08:30N 51°53' E 004°17'0 0.0
2017-Jun-16 08:00N 51°53' E 004°17'0 0.0
2017-Jun-16 07:31N 51°53' E 004°17'0 0.0
2017-Jun-16 07:00N 51°53' E 004°17'0 0.0
2017-Jun-16 06:31N 51°53' E 004°17'0 0.0
2017-Jun-16 06:00N 51°53' E 004°17'0 0.0
2017-Jun-16 05:30N 51°53' E 004°17'0 0.0
2017-Jun-16 05:00N 51°53' E 004°17'0 0.0
2017-Jun-16 04:30N 51°53' E 004°17'0 0.0
2017-Jun-16 04:00N 51°53' E 004°17'0 0.0
2017-Jun-16 03:30N 51°53' E 004°17'0 0.0
2017-Jun-16 03:00N 51°53' E 004°17'0 0.0
2017-Jun-16 02:30N 51°53' E 004°17'0 0.0
2017-Jun-16 02:00N 51°53' E 004°17'0 0.0
2017-Jun-16 01:28N 51°53' E 004°17'0 0.0
2017-Jun-16 01:00N 51°53' E 004°17'0 0.0
2017-Jun-16 00:30N 51°53' E 004°17'0 0.0
2017-Jun-16 00:00N 51°53' E 004°17'0 0.0
2017-Jun-15 23:18N 51°53' E 004°17'0 0.0
2017-Jun-15 22:59N 51°53' E 004°17'0 0.0
2017-Jun-15 22:30N 51°53' E 004°17'0 0.0
2017-Jun-15 22:00N 51°53' E 004°17'0 0.0
2017-Jun-15 21:30N 51°53' E 004°17'0 0.0
2017-Jun-15 21:00N 51°53' E 004°17'0 0.0
2017-Jun-15 20:30N 51°53' E 004°17'0 0.0
2017-Jun-15 20:00N 51°53' E 004°17'0 0.0
2017-Jun-15 19:25N 51°53' E 004°17'0 0.0
2017-Jun-15 19:00N 51°53' E 004°17'0 0.0
2017-Jun-15 18:21N 51°53' E 004°17'0 0.0
2017-Jun-15 18:00N 51°53' E 004°17'0 0.0
2017-Jun-15 17:30N 51°53' E 004°17'0 0.0
2017-Jun-15 17:00N 51°53' E 004°17'0 0.0
2017-Jun-15 16:30N 51°53' E 004°17'0 0.0
2017-Jun-15 16:00N 51°53' E 004°17'0 0.0
2017-Jun-15 15:30N 51°53' E 004°17'0 0.0
2017-Jun-15 15:00N 51°53' E 004°17'0 0.0
2017-Jun-15 14:00N 51°53' E 004°17'0 0.0
2017-Jun-15 13:30N 51°53' E 004°17'0 0.0
2017-Jun-15 12:59N 51°53' E 004°17'0 0.0
2017-Jun-15 12:30N 51°53' E 004°17'0 0.0
2017-Jun-15 12:00N 51°53' E 004°17'0 0.0
2017-Jun-15 11:30N 51°53' E 004°17'1 1.7
2017-Jun-15 11:00N 51°53' E 004°18'2 4.8
2017-Jun-15 10:30N 51°55' E 004°15'4 8.6
2017-Jun-15 10:00N 51°57' E 004°10'611.2
2017-Jun-15 09:30N 51°60' E 004°01'714.0
2017-Jun-15 09:00N 51°60' E 003°50'4 8.8
2017-Jun-15 08:30N 51°59' E 003°43'611.9
2017-Jun-15 07:59N 51°58' E 003°33'510.3
2017-Jun-15 07:30N 51°56' E 003°25'3 5.0
2017-Jun-15 06:55N 51°56' E 003°21'710.8
2017-Jun-15 06:14N 51°53' E 003°10'410.6
2017-Jun-15 05:52N 51°53' E 003°03'710.8
2017-Jun-15 05:12N 51°52' E 002°52'1710.4
2017-Jun-15 03:34N 52°01' E 002°28'110.9
2017-Jun-15 03:29N 52°01' E 002°27'510.1
2017-Jun-15 03:00N 52°06' E 002°25'1010.5
2017-Jun-15 02:03N 52°16' E 002°25'110.2
2017-Jun-15 01:58N 52°17' E 002°25'510.3
2017-Jun-15 01:30N 52°21' E 002°25'510.3
2017-Jun-15 01:00N 52°27' E 002°25'510.5
2017-Jun-15 00:30N 52°32' E 002°25'610.6
2017-Jun-14 23:54N 52°38' E 002°25'410.4
2017-Jun-14 23:30N 52°42' E 002°25'510.2
2017-Jun-14 23:00N 52°48' E 002°25'511.0
2017-Jun-14 22:30N 52°53' E 002°27'3 5.3
2017-Jun-14 22:00N 52°52' E 002°31'510.6
2017-Jun-14 21:30N 52°47' E 002°31'611.3
2017-Jun-14 21:00N 52°41' E 002°31'713.6
2017-Jun-14 20:30N 52°35' E 002°31'713.3
2017-Jun-14 20:00N 52°28' E 002°31'612.3
2017-Jun-14 19:29N 52°22' E 002°31'13 5.5
2017-Jun-14 17:04N 52°34' E 002°23'110.8
2017-Jun-14 17:00N 52°35' E 002°23'510.9
2017-Jun-14 16:30N 52°40' E 002°23'611.1
2017-Jun-14 15:58N 52°46' E 002°23'511.3
2017-Jun-14 15:30N 52°51' E 002°23'510.3
2017-Jun-14 15:00N 52°56' E 002°24'1110.8
2017-Jun-14 14:00N 52°56' E 002°41'611.3
2017-Jun-14 13:30N 52°50' E 002°41'611.2
2017-Jun-14 13:00N 52°45' E 002°41'811.7
2017-Jun-14 12:19N 52°36' E 002°40'411.2
2017-Jun-14 11:57N 52°32' E 002°40'511.1
2017-Jun-14 11:30N 52°27' E 002°40'611.0
2017-Jun-14 11:00N 52°22' E 002°40'611.2
2017-Jun-14 10:28N 52°16' E 002°40'610.5
2017-Jun-14 09:56N 52°10' E 002°40'410.0
2017-Jun-14 09:30N 52°06' E 002°40'510.9
2017-Jun-14 09:00N 52°01' E 002°41'612.7
2017-Jun-14 08:30N 51°54' E 002°41'612.2
2017-Jun-14 08:00N 51°48' E 002°42'713.2
2017-Jun-14 07:29N 51°47' E 002°52'613.1
2017-Jun-14 07:00N 51°46' E 003°03'713.4
2017-Jun-14 06:30N 51°45' E 003°13'611.3
2017-Jun-14 06:00N 51°40' E 003°19'714.1
2017-Jun-14 05:30N 51°34' E 003°24'713.7
2017-Jun-14 05:00N 51°28' E 003°31'5 9.7
2017-Jun-14 04:30N 51°26' E 003°38'612.2
2017-Jun-14 04:01N 51°22' E 003°45'611.6
2017-Jun-14 03:31N 51°22' E 003°54'511.0
2017-Jun-14 03:00N 51°26' E 003°59'510.4
2017-Jun-14 02:31N 51°22' E 004°05'510.3
2017-Jun-14 02:00N 51°23' E 004°13'510.0
2017-Jun-14 01:30N 51°18' E 004°16'2 4.0
2017-Jun-14 01:00N 51°17' E 004°15'0 0.0
2017-Jun-14 00:31N 51°17' E 004°15'0 0.7
2017-Jun-14 00:00N 51°16' E 004°15'1 1.8
2017-Jun-13 23:31N 51°16' E 004°16'0 0.1
2017-Jun-13 22:55N 51°16' E 004°16'0 0.0
2017-Jun-13 22:28N 51°16' E 004°16'0 0.0
2017-Jun-12 23:34N 51°16' E 004°16'0 0.1
2017-Jun-12 23:28N 51°16' E 004°16'0 0.0
2017-Jun-12 19:43N 51°16' E 004°16'0 0.0
2017-Jun-12 19:28N 51°16' E 004°16'0 0.0
2017-Jun-12 15:52N 51°16' E 004°16'0 0.0
2017-Jun-12 15:28N 51°16' E 004°16'0 0.0
2017-Jun-12 14:58N 51°16' E 004°16'0 0.0
2017-Jun-12 13:58N 51°16' E 004°16'0 0.0
2017-Jun-12 13:28N 51°16' E 004°16'0 0.0
2017-Jun-12 12:58N 51°16' E 004°16'0 0.0
2017-Jun-12 12:28N 51°16' E 004°16'0 0.0
2017-Jun-12 11:58N 51°16' E 004°16'0 0.0
2017-Jun-12 11:28N 51°16' E 004°16'0 0.0
2017-Jun-12 10:58N 51°16' E 004°16'0 0.0
2017-Jun-12 10:28N 51°16' E 004°16'0 0.0
2017-Jun-12 09:55N 51°16' E 004°16'0 0.0
2017-Jun-12 09:28N 51°16' E 004°16'0 0.0
2017-Jun-12 08:52N 51°16' E 004°16'0 0.0
2017-Jun-12 08:28N 51°16' E 004°16'0 0.0
2017-Jun-12 07:58N 51°16' E 004°16'0 0.0
2017-Jun-12 07:25N 51°16' E 004°16'0 0.0
2017-Jun-12 06:58N 51°16' E 004°16'0 0.0
2017-Jun-12 06:25N 51°16' E 004°16'0 0.0
2017-Jun-12 05:58N 51°16' E 004°16'0 0.0
2017-Jun-12 05:28N 51°16' E 004°16'0 0.0
2017-Jun-12 04:58N 51°16' E 004°16'  
Track history (hours):
 
Tides and Currents Weather Stations Pressure Air Temp Water Temp Dewpoint Dewpoint Depression Visibility Wind Speed Wind Dir Waves Ship Positions

Bow Clipper

Last reported at 2017-Jun-22 04:34 UTC. Time now 2017-Jun-28 16:06 UTC.
Position N 49°05' W 006°40'.

Length 188 m; draft 6.1 m.

Type: Ship (hazmat cat B). MMSI: 258946991.

Date/timePositionNaut miles runAvg speedWind from/ knotsBaromVisibWave heightAir tempDewpointWater temp
2017-Jun-22 04:34N 49°05' W 006°40'412.3
2017-Jun-22 04:16N 49°05' W 006°35'412.4
2017-Jun-22 03:59N 49°05' W 006°29'612.1
2017-Jun-22 03:30N 49°05' W 006°20'812.2
2017-Jun-22 02:51N 49°08' W 006°09'412.3
2017-Jun-22 02:30N 49°09' W 006°03'612.2
2017-Jun-22 01:59N 49°12' W 005°54'612.2
2017-Jun-22 01:30N 49°14' W 005°46'612.1
2017-Jun-22 00:59N 49°16' W 005°37'612.3
2017-Jun-22 00:30N 49°19' W 005°28'612.5
2017-Jun-22 00:00N 49°21' W 005°19'712.8
2017-Jun-21 23:25N 49°23' W 005°09'713.1
2017-Jun-21 22:55N 49°26' W 004°59'613.5
2017-Jun-21 22:29N 49°28' W 004°51'713.8
2017-Jun-21 21:59N 49°31' W 004°41'714.0
2017-Jun-21 21:30N 49°33' W 004°32'714.2
2017-Jun-21 21:00N 49°36' W 004°21'714.3
2017-Jun-21 20:30N 49°39' W 004°11'714.1
2017-Jun-21 20:00N 49°42' W 004°01'713.7
2017-Jun-21 19:30N 49°45' W 003°52'713.3
2017-Jun-21 19:00N 49°47' W 003°42'612.6
2017-Jun-21 18:30N 49°50' W 003°33'612.2
2017-Jun-21 18:00N 49°52' W 003°25'611.9
2017-Jun-21 17:30N 49°55' W 003°16'611.7
2017-Jun-21 17:00N 49°57' W 003°08'611.6
2017-Jun-21 16:30N 49°59' W 002°59'611.6
2017-Jun-21 16:00N 50°01' W 002°51'611.8
2017-Jun-21 15:29N 50°02' W 002°42'712.1
2017-Jun-21 14:57N 50°04' W 002°32'1312.9
2017-Jun-21 13:57N 50°08' W 002°13'714.1
2017-Jun-21 13:27N 50°10' W 002°02'714.8
2017-Jun-21 13:00N 50°12' W 001°52'915.5
2017-Jun-21 12:25N 50°14' W 001°38'615.9
2017-Jun-21 12:00N 50°16' W 001°29'816.0
2017-Jun-21 11:30N 50°18' W 001°17'816.4
2017-Jun-21 11:00N 50°21' W 001°04'816.3
2017-Jun-21 10:30N 50°22' W 000°52'815.3
2017-Jun-21 10:00N 50°24' W 000°40'714.7
2017-Jun-21 09:30N 50°26' W 000°29'714.2
2017-Jun-21 09:00N 50°28' W 000°18'713.6
2017-Jun-21 08:30N 50°30' W 000°08'713.0
2017-Jun-21 08:00N 50°32' E 000°02'612.6
2017-Jun-21 07:30N 50°33' E 000°11'612.1
2017-Jun-21 07:00N 50°35' E 000°20'611.9
2017-Jun-21 06:30N 50°37' E 000°29'611.9
2017-Jun-21 06:00N 50°39' E 000°38'612.5
2017-Jun-21 05:30N 50°43' E 000°46'612.9
2017-Jun-21 05:00N 50°47' E 000°54'713.6
2017-Jun-21 04:28N 50°51' E 001°04'714.5
2017-Jun-21 03:59N 50°56' E 001°12'715.4
2017-Jun-21 03:30N 51°01' E 001°21'815.7
2017-Jun-21 03:00N 51°05' E 001°31'815.3
2017-Jun-21 02:30N 51°10' E 001°40'714.3
2017-Jun-21 02:00N 51°16' E 001°47'713.7
2017-Jun-21 01:30N 51°22' E 001°52'612.9
2017-Jun-21 01:00N 51°27' E 001°57'612.7
2017-Jun-21 00:30N 51°32' E 002°04'612.5
2017-Jun-21 00:00N 51°37' E 002°11'612.4
2017-Jun-20 23:30N 51°41' E 002°18'612.2
2017-Jun-20 23:00N 51°46' E 002°24'612.1
2017-Jun-20 22:30N 51°51' E 002°30'612.2
2017-Jun-20 22:00N 51°55' E 002°37'612.4
2017-Jun-20 21:30N 51°59' E 002°45'612.2
2017-Jun-20 21:00N 52°03' E 002°53'613.2
2017-Jun-20 20:30N 52°03' E 003°03'816.1
2017-Jun-20 20:00N 52°03' E 003°17'611.7
2017-Jun-20 19:30N 52°03' E 003°26'713.7
2017-Jun-20 19:01N 52°03' E 003°37'714.4
2017-Jun-20 18:30N 52°03' E 003°49'4 8.9
2017-Jun-20 18:00N 52°02' E 003°56'713.7
2017-Jun-20 17:31N 51°59' E 004°06'510.2
2017-Jun-20 17:00N 51°56' E 004°13'5 9.4
2017-Jun-20 16:30N 51°54' E 004°19'0 0.8
2017-Jun-20 15:57N 51°53' E 004°19'0 0.0
2017-Jun-20 15:30N 51°53' E 004°19'0 0.0
2017-Jun-20 15:00N 51°53' E 004°19'0 0.0
2017-Jun-20 14:30N 51°53' E 004°19'0 0.0
2017-Jun-20 13:30N 51°53' E 004°19'0 0.0
2017-Jun-20 13:00N 51°53' E 004°19'0 0.0
2017-Jun-20 12:30N 51°53' E 004°19'0 0.0
2017-Jun-20 12:00N 51°53' E 004°19'0 0.0
2017-Jun-20 11:29N 51°53' E 004°19'0 0.0
2017-Jun-20 11:00N 51°53' E 004°19'0 0.0
2017-Jun-20 10:30N 51°53' E 004°19'0 0.0
2017-Jun-20 10:00N 51°53' E 004°19'0 0.0
2017-Jun-20 09:30N 51°53' E 004°19'0 0.7
2017-Jun-20 09:00N 51°53' E 004°19'1 1.1
2017-Jun-20 08:30N 51°53' E 004°19'0 0.0
2017-Jun-20 08:00N 51°53' E 004°19'0 0.0
2017-Jun-20 07:30N 51°53' E 004°19'0 0.0
2017-Jun-20 07:00N 51°53' E 004°19'0 0.0
2017-Jun-20 06:30N 51°53' E 004°19'0 0.0
2017-Jun-20 06:00N 51°53' E 004°19'0 0.0
2017-Jun-20 05:30N 51°53' E 004°19'0 0.0
2017-Jun-20 05:00N 51°53' E 004°19'0 0.0
2017-Jun-20 04:30N 51°53' E 004°19'0 0.0
2017-Jun-20 04:00N 51°53' E 004°19'0 0.0
2017-Jun-20 03:30N 51°53' E 004°19'0 0.0
2017-Jun-20 03:00N 51°53' E 004°19'0 0.0
2017-Jun-20 02:30N 51°53' E 004°19'0 0.0
2017-Jun-20 02:00N 51°53' E 004°19'0 0.0
2017-Jun-20 01:30N 51°53' E 004°19'0 0.0
2017-Jun-20 01:00N 51°53' E 004°19'0 0.0
2017-Jun-20 00:30N 51°53' E 004°19'0 0.0
2017-Jun-20 00:00N 51°53' E 004°19'0 0.0
2017-Jun-19 23:30N 51°53' E 004°19'0 0.0
2017-Jun-19 23:00N 51°53' E 004°19'0 0.0
2017-Jun-19 22:30N 51°53' E 004°19'0 0.0
2017-Jun-19 22:00N 51°53' E 004°19'0 0.0
2017-Jun-19 21:30N 51°53' E 004°19'0 0.0
2017-Jun-19 21:00N 51°53' E 004°19'0 0.0
2017-Jun-19 20:30N 51°53' E 004°19'0 0.0
2017-Jun-19 20:00N 51°53' E 004°19'0 0.0
2017-Jun-19 19:30N 51°53' E 004°19'0 0.0
2017-Jun-19 18:59N 51°53' E 004°19'0 0.0
2017-Jun-19 18:30N 51°53' E 004°19'0 0.0
2017-Jun-19 18:00N 51°53' E 004°19'0 0.0
2017-Jun-19 17:30N 51°53' E 004°19'0 0.0
2017-Jun-19 17:00N 51°53' E 004°19'0 0.0
2017-Jun-19 16:30N 51°53' E 004°19'0 0.0
2017-Jun-19 16:00N 51°53' E 004°19'0 0.0
2017-Jun-19 15:30N 51°53' E 004°19'0 0.0
2017-Jun-19 15:00N 51°53' E 004°19'0 0.0
2017-Jun-19 14:00N 51°53' E 004°19'0 0.0
2017-Jun-19 13:30N 51°53' E 004°19'0 0.0
2017-Jun-19 13:00N 51°53' E 004°19'0 0.0
2017-Jun-19 12:30N 51°53' E 004°19'0 0.0
2017-Jun-19 12:00N 51°53' E 004°19'0 0.0
2017-Jun-19 11:30N 51°53' E 004°19'0 0.0
2017-Jun-19 11:00N 51°53' E 004°19'0 0.0
2017-Jun-19 10:30N 51°53' E 004°19'0 0.0
2017-Jun-19 10:00N 51°53' E 004°19'0 0.0
2017-Jun-19 09:30N 51°53' E 004°19'0 0.0
2017-Jun-19 09:00N 51°53' E 004°19'0 0.0
2017-Jun-19 08:30N 51°53' E 004°19'0 0.0
2017-Jun-19 08:00N 51°53' E 004°19'0 0.0
2017-Jun-19 07:30N 51°53' E 004°19'0 0.0
2017-Jun-19 06:59N 51°53' E 004°19'0 0.0
2017-Jun-19 06:30N 51°53' E 004°19'0 0.0
2017-Jun-19 06:00N 51°53' E 004°19'0 0.0
2017-Jun-19 05:30N 51°53' E 004°19'0 0.0
2017-Jun-19 05:00N 51°53' E 004°19'0 0.0
2017-Jun-19 04:29N 51°53' E 004°19'0 0.0
2017-Jun-19 04:00N 51°53' E 004°19'0 0.0
2017-Jun-19 03:30N 51°53' E 004°19'0 0.0
2017-Jun-19 03:00N 51°53' E 004°19'0 0.0
2017-Jun-19 02:30N 51°53' E 004°19'0 0.0
2017-Jun-19 02:00N 51°53' E 004°19'0 0.0
2017-Jun-19 01:29N 51°53' E 004°19'0 0.0
2017-Jun-19 01:00N 51°53' E 004°19'0 0.0
2017-Jun-19 00:30N 51°53' E 004°19'0 0.0
2017-Jun-19 00:00N 51°53' E 004°19'0 0.0
2017-Jun-18 23:30N 51°53' E 004°19'0 0.0
2017-Jun-18 23:00N 51°53' E 004°19'0 0.0
2017-Jun-18 22:29N 51°53' E 004°19'0 0.0
2017-Jun-18 22:00N 51°53' E 004°19'0 0.0
2017-Jun-18 21:30N 51°53' E 004°19'0 0.9
2017-Jun-18 21:00N 51°53' E 004°18'0 0.1
2017-Jun-18 20:30N 51°53' E 004°19'0 0.0
2017-Jun-18 20:00N 51°53' E 004°19'0 0.0
2017-Jun-18 19:29N 51°53' E 004°19'0 0.0
2017-Jun-18 19:00N 51°53' E 004°19'0 0.0
2017-Jun-18 18:30N 51°53' E 004°19'0 0.0
2017-Jun-18 18:00N 51°53' E 004°19'0 0.0
2017-Jun-18 17:30N 51°53' E 004°19'0 0.0
2017-Jun-18 17:00N 51°53' E 004°19'0 0.0
2017-Jun-18 16:29N 51°53' E 004°19'0 0.0
2017-Jun-18 16:00N 51°53' E 004°19'0 0.0
2017-Jun-18 15:30N 51°53' E 004°19'0 0.0
2017-Jun-18 15:00N 51°53' E 004°19'0 0.0
2017-Jun-18 14:00N 51°53' E 004°19'0 0.0
2017-Jun-18 13:30N 51°53' E 004°19'0 0.0
2017-Jun-18 12:57N 51°53' E 004°19'0 0.0
2017-Jun-18 12:29N 51°53' E 004°19'0 0.0
2017-Jun-18 12:00N 51°53' E 004°19'0 0.0
2017-Jun-18 11:29N 51°53' E 004°19'0 0.0
2017-Jun-18 11:00N 51°53' E 004°19'0 0.0
2017-Jun-18 10:30N 51°53' E 004°19'0 0.0
2017-Jun-18 10:00N 51°53' E 004°19'0 0.0
2017-Jun-18 09:30N 51°53' E 004°19'0 0.0
2017-Jun-18 09:00N 51°53' E 004°19'0 0.0
2017-Jun-18 08:30N 51°53' E 004°19'0 0.0
2017-Jun-18 08:00N 51°53' E 004°19'0 0.0
2017-Jun-18 07:30N 51°53' E 004°19'0 0.0
2017-Jun-18 07:00N 51°53' E 004°19'0 0.0
2017-Jun-18 06:30N 51°53' E 004°19'0 0.0
2017-Jun-18 06:00N 51°53' E 004°19'0 0.0
2017-Jun-18 05:30N 51°53' E 004°19'0 0.0
2017-Jun-18 05:00N 51°53' E 004°19'0 0.0
2017-Jun-18 04:30N 51°53' E 004°19'0 0.0
2017-Jun-18 04:00N 51°53' E 004°19'0 0.0
2017-Jun-18 03:30N 51°53' E 004°19'0 0.0
2017-Jun-18 03:00N 51°53' E 004°19'0 0.0
2017-Jun-18 02:30N 51°53' E 004°19'0 0.0
2017-Jun-18 02:00N 51°53' E 004°19'0 0.0
2017-Jun-18 01:30N 51°53' E 004°19'0 0.0
2017-Jun-18 01:00N 51°53' E 004°19'0 0.0
2017-Jun-18 00:30N 51°53' E 004°19'0 0.0
2017-Jun-18 00:00N 51°53' E 004°19'0 0.0
2017-Jun-17 23:30N 51°53' E 004°19'0 0.0
2017-Jun-17 23:00N 51°53' E 004°19'0 0.0
2017-Jun-17 22:24N 51°53' E 004°19'0 0.0
2017-Jun-17 22:00N 51°53' E 004°19'0 0.0
2017-Jun-17 21:30N 51°53' E 004°19'0 0.0
2017-Jun-17 21:00N 51°53' E 004°19'0 0.0
2017-Jun-17 20:30N 51°53' E 004°19'0 0.0
2017-Jun-17 20:00N 51°53' E 004°19'0 0.0
2017-Jun-17 19:30N 51°53' E 004°19'0 0.0
2017-Jun-17 19:00N 51°53' E 004°19'0 0.0
2017-Jun-17 18:30N 51°53' E 004°19'0 0.0
2017-Jun-17 18:00N 51°53' E 004°19'0 0.0
2017-Jun-17 17:30N 51°53' E 004°19'0 0.0
2017-Jun-17 17:00N 51°53' E 004°19'0 0.0
2017-Jun-17 16:30N 51°53' E 004°19'0 0.0
2017-Jun-17 16:00N 51°53' E 004°19'0 0.0
2017-Jun-17 15:30N 51°53' E 004°19'0 0.0
2017-Jun-17 15:00N 51°53' E 004°19'0 0.0
2017-Jun-17 14:30N 51°53' E 004°19'0 0.0
2017-Jun-17 13:30N 51°53' E 004°19'0 0.0
2017-Jun-17 13:00N 51°53' E 004°19'0 0.0
2017-Jun-17 12:30N 51°53' E 004°19'0 0.0
2017-Jun-17 12:00N 51°53' E 004°19'0 0.0
2017-Jun-17 11:30N 51°53' E 004°19'0 0.0
2017-Jun-17 11:00N 51°53' E 004°19'0 0.0
2017-Jun-17 10:30N 51°53' E 004°19'0 0.0
2017-Jun-17 10:00N 51°53' E 004°19'0 0.0
2017-Jun-17 09:30N 51°53' E 004°19'0 0.0
2017-Jun-17 09:00N 51°53' E 004°19'0 0.0
2017-Jun-17 08:30N 51°53' E 004°19'0 0.0
2017-Jun-17 08:00N 51°53' E 004°19'0 0.0
2017-Jun-17 07:30N 51°53' E 004°19'0 0.0
2017-Jun-17 07:00N 51°53' E 004°19'0 0.0
2017-Jun-17 06:30N 51°53' E 004°19'0 0.0
2017-Jun-17 06:00N 51°53' E 004°19'0 0.0
2017-Jun-17 05:30N 51°53' E 004°19'0 0.0
2017-Jun-17 05:00N 51°53' E 004°19'0 0.0
2017-Jun-17 04:30N 51°53' E 004°19'0 0.0
2017-Jun-17 04:00N 51°53' E 004°19'0 0.0
2017-Jun-17 03:30N 51°53' E 004°19'0 0.0
2017-Jun-17 03:00N 51°53' E 004°19'0 0.0
2017-Jun-17 02:30N 51°53' E 004°19'0 0.0
2017-Jun-17 02:00N 51°53' E 004°19'0 0.0
2017-Jun-17 01:30N 51°53' E 004°19'0 0.0
2017-Jun-17 01:00N 51°53' E 004°19'0 0.0
2017-Jun-17 00:30N 51°53' E 004°19'0 0.0
2017-Jun-17 00:00N 51°53' E 004°19'0 0.0
2017-Jun-16 23:30N 51°53' E 004°19'0 0.0
2017-Jun-16 23:00N 51°53' E 004°19'0 0.0
2017-Jun-16 22:30N 51°53' E 004°19'0 0.0
2017-Jun-16 22:00N 51°53' E 004°19'0 0.0
2017-Jun-16 21:30N 51°53' E 004°19'0 0.0
2017-Jun-16 21:00N 51°53' E 004°19'0 0.0
2017-Jun-16 20:30N 51°53' E 004°19'0 0.0
2017-Jun-16 20:00N 51°53' E 004°19'0 0.3
2017-Jun-16 19:30N 51°53' E 004°18'1 1.9
2017-Jun-16 19:00N 51°53' E 004°17'0 0.2
2017-Jun-16 18:30N 51°53' E 004°17'0 0.0
2017-Jun-16 18:00N 51°53' E 004°17'0 0.0
2017-Jun-16 17:30N 51°53' E 004°17'0 0.0
2017-Jun-16 17:00N 51°53' E 004°17'0 0.0
2017-Jun-16 16:30N 51°53' E 004°17'0 0.0
2017-Jun-16 16:00N 51°53' E 004°17'0 0.0
2017-Jun-16 15:30N 51°53' E 004°17'0 0.0
2017-Jun-16 15:00N 51°53' E 004°17'0 0.0
2017-Jun-16 14:30N 51°53' E 004°17'0 0.1
2017-Jun-16 13:30N 51°53' E 004°17'0 0.0
2017-Jun-16 13:00N 51°53' E 004°17'0 0.0
2017-Jun-16 12:30N 51°53' E 004°17'0 0.0
2017-Jun-16 12:00N 51°53' E 004°17'0 0.0
2017-Jun-16 11:30N 51°53' E 004°17'0 0.0
2017-Jun-16 11:00N 51°53' E 004°17'0 0.0
2017-Jun-16 10:30N 51°53' E 004°17'0 0.0
2017-Jun-16 10:00N 51°53' E 004°17'0 0.0
2017-Jun-16 09:30N 51°53' E 004°17'0 0.0
2017-Jun-16 08:57N 51°53' E 004°17'0 0.0
2017-Jun-16 08:30N 51°53' E 004°17'0 0.0
2017-Jun-16 08:00N 51°53' E 004°17'0 0.0
2017-Jun-16 07:31N 51°53' E 004°17'0 0.0
2017-Jun-16 07:00N 51°53' E 004°17'0 0.0
2017-Jun-16 06:31N 51°53' E 004°17'0 0.0
2017-Jun-16 06:00N 51°53' E 004°17'0 0.0
2017-Jun-16 05:30N 51°53' E 004°17'0 0.0
2017-Jun-16 05:00N 51°53' E 004°17'0 0.0
2017-Jun-16 04:30N 51°53' E 004°17'0 0.0
2017-Jun-16 04:00N 51°53' E 004°17'0 0.0
2017-Jun-16 03:30N 51°53' E 004°17'0 0.0
2017-Jun-16 03:00N 51°53' E 004°17'0 0.0
2017-Jun-16 02:30N 51°53' E 004°17'0 0.0
2017-Jun-16 02:00N 51°53' E 004°17'0 0.0
2017-Jun-16 01:28N 51°53' E 004°17'0 0.0
2017-Jun-16 01:00N 51°53' E 004°17'0 0.0
2017-Jun-16 00:30N 51°53' E 004°17'0 0.0
2017-Jun-16 00:00N 51°53' E 004°17'0 0.0
2017-Jun-15 23:18N 51°53' E 004°17'0 0.0
2017-Jun-15 22:59N 51°53' E 004°17'0 0.0
2017-Jun-15 22:30N 51°53' E 004°17'0 0.0
2017-Jun-15 22:00N 51°53' E 004°17'0 0.0
2017-Jun-15 21:30N 51°53' E 004°17'0 0.0
2017-Jun-15 21:00N 51°53' E 004°17'0 0.0
2017-Jun-15 20:30N 51°53' E 004°17'0 0.0
2017-Jun-15 20:00N 51°53' E 004°17'0 0.0
2017-Jun-15 19:25N 51°53' E 004°17'0 0.0
2017-Jun-15 19:00N 51°53' E 004°17'0 0.0
2017-Jun-15 18:21N 51°53' E 004°17'0 0.0
2017-Jun-15 18:00N 51°53' E 004°17'0 0.0
2017-Jun-15 17:30N 51°53' E 004°17'0 0.0
2017-Jun-15 17:00N 51°53' E 004°17'0 0.0
2017-Jun-15 16:30N 51°53' E 004°17'0 0.0
2017-Jun-15 16:00N 51°53' E 004°17'0 0.0
2017-Jun-15 15:30N 51°53' E 004°17'0 0.0
2017-Jun-15 15:00N 51°53' E 004°17'0 0.0
2017-Jun-15 14:00N 51°53' E 004°17'0 0.0
2017-Jun-15 13:30N 51°53' E 004°17'0 0.0
2017-Jun-15 12:59N 51°53' E 004°17'0 0.0
2017-Jun-15 12:30N 51°53' E 004°17'0 0.0
2017-Jun-15 12:00N 51°53' E 004°17'0 0.0
2017-Jun-15 11:30N 51°53' E 004°17'1 1.7
2017-Jun-15 11:00N 51°53' E 004°18'2 4.8
2017-Jun-15 10:30N 51°55' E 004°15'4 8.6
2017-Jun-15 10:00N 51°57' E 004°10'611.2
2017-Jun-15 09:30N 51°60' E 004°01'714.0
2017-Jun-15 09:00N 51°60' E 003°50'4 8.8
2017-Jun-15 08:30N 51°59' E 003°43'611.9
2017-Jun-15 07:59N 51°58' E 003°33'510.3
2017-Jun-15 07:30N 51°56' E 003°25'3 5.0
2017-Jun-15 06:55N 51°56' E 003°21'710.8
2017-Jun-15 06:14N 51°53' E 003°10'410.6
2017-Jun-15 05:52N 51°53' E 003°03'710.8
2017-Jun-15 05:12N 51°52' E 002°52'1710.4
2017-Jun-15 03:34N 52°01' E 002°28'110.9
2017-Jun-15 03:29N 52°01' E 002°27'510.1
2017-Jun-15 03:00N 52°06' E 002°25'1010.5
2017-Jun-15 02:03N 52°16' E 002°25'110.2
2017-Jun-15 01:58N 52°17' E 002°25'510.3
2017-Jun-15 01:30N 52°21' E 002°25'510.3
2017-Jun-15 01:00N 52°27' E 002°25'510.5
2017-Jun-15 00:30N 52°32' E 002°25'610.6
2017-Jun-14 23:54N 52°38' E 002°25'410.4
2017-Jun-14 23:30N 52°42' E 002°25'510.2
2017-Jun-14 23:00N 52°48' E 002°25'511.0
2017-Jun-14 22:30N 52°53' E 002°27'3 5.3
2017-Jun-14 22:00N 52°52' E 002°31'510.6
2017-Jun-14 21:30N 52°47' E 002°31'611.3
2017-Jun-14 21:00N 52°41' E 002°31'713.6
2017-Jun-14 20:30N 52°35' E 002°31'713.3
2017-Jun-14 20:00N 52°28' E 002°31'612.3
2017-Jun-14 19:29N 52°22' E 002°31'13 5.5
2017-Jun-14 17:04N 52°34' E 002°23'110.8
2017-Jun-14 17:00N 52°35' E 002°23'510.9
2017-Jun-14 16:30N 52°40' E 002°23'611.1
2017-Jun-14 15:58N 52°46' E 002°23'511.3
2017-Jun-14 15:30N 52°51' E 002°23'510.3
2017-Jun-14 15:00N 52°56' E 002°24'1110.8
2017-Jun-14 14:00N 52°56' E 002°41'611.3
2017-Jun-14 13:30N 52°50' E 002°41'611.2
2017-Jun-14 13:00N 52°45' E 002°41'811.7
2017-Jun-14 12:19N 52°36' E 002°40'411.2
2017-Jun-14 11:57N 52°32' E 002°40'511.1
2017-Jun-14 11:30N 52°27' E 002°40'611.0
2017-Jun-14 11:00N 52°22' E 002°40'611.2
2017-Jun-14 10:28N 52°16' E 002°40'610.5
2017-Jun-14 09:56N 52°10' E 002°40'410.0
2017-Jun-14 09:30N 52°06' E 002°40'510.9
2017-Jun-14 09:00N 52°01' E 002°41'612.7
2017-Jun-14 08:30N 51°54' E 002°41'612.2
2017-Jun-14 08:00N 51°48' E 002°42'713.2
2017-Jun-14 07:29N 51°47' E 002°52'613.1
2017-Jun-14 07:00N 51°46' E 003°03'713.4
2017-Jun-14 06:30N 51°45' E 003°13'611.3
2017-Jun-14 06:00N 51°40' E 003°19'714.1
2017-Jun-14 05:30N 51°34' E 003°24'713.7
2017-Jun-14 05:00N 51°28' E 003°31'5 9.7
2017-Jun-14 04:30N 51°26' E 003°38'612.2
2017-Jun-14 04:01N 51°22' E 003°45'611.6
2017-Jun-14 03:31N 51°22' E 003°54'511.0
2017-Jun-14 03:00N 51°26' E 003°59'510.4
2017-Jun-14 02:31N 51°22' E 004°05'510.3
2017-Jun-14 02:00N 51°23' E 004°13'510.0
2017-Jun-14 01:30N 51°18' E 004°16'2 4.0
2017-Jun-14 01:00N 51°17' E 004°15'0 0.0
2017-Jun-14 00:31N 51°17' E 004°15'0 0.7
2017-Jun-14 00:00N 51°16' E 004°15'1 1.8
2017-Jun-13 23:31N 51°16' E 004°16'0 0.1
2017-Jun-13 22:55N 51°16' E 004°16'0 0.0
2017-Jun-13 22:28N 51°16' E 004°16'0 0.0
2017-Jun-12 23:34N 51°16' E 004°16'0 0.1
2017-Jun-12 23:28N 51°16' E 004°16'0 0.0
2017-Jun-12 19:43N 51°16' E 004°16'0 0.0
2017-Jun-12 19:28N 51°16' E 004°16'0 0.0
2017-Jun-12 15:52N 51°16' E 004°16'0 0.0
2017-Jun-12 15:28N 51°16' E 004°16'0 0.0
2017-Jun-12 14:58N 51°16' E 004°16'0 0.0
2017-Jun-12 13:58N 51°16' E 004°16'0 0.0
2017-Jun-12 13:28N 51°16' E 004°16'0 0.0
2017-Jun-12 12:58N 51°16' E 004°16'0 0.0
2017-Jun-12 12:28N 51°16' E 004°16'0 0.0
2017-Jun-12 11:58N 51°16' E 004°16'0 0.0
2017-Jun-12 11:28N 51°16' E 004°16'0 0.0
2017-Jun-12 10:58N 51°16' E 004°16'0 0.0
2017-Jun-12 10:28N 51°16' E 004°16'0 0.0
2017-Jun-12 09:55N 51°16' E 004°16'0 0.0
2017-Jun-12 09:28N 51°16' E 004°16'0 0.0
2017-Jun-12 08:52N 51°16' E 004°16'0 0.0
2017-Jun-12 08:28N 51°16' E 004°16'0 0.0
2017-Jun-12 07:58N 51°16' E 004°16'0 0.0
2017-Jun-12 07:25N 51°16' E 004°16'0 0.0
2017-Jun-12 06:58N 51°16' E 004°16'0 0.0
2017-Jun-12 06:25N 51°16' E 004°16'0 0.0
2017-Jun-12 05:58N 51°16' E 004°16'0 0.0
2017-Jun-12 05:28N 51°16' E 004°16'0 0.0
2017-Jun-12 04:58N 51°16' E 004°16'  

Dump ship's entire track history